Time;durP1;ratioP1;P1;durP2;ratioP2;P2;SDS_P1;SDS_P2;PMS_P1;PMS_P2;Temp;Humidity;BMP_temperature;BMP_pressure;BME280_temperature;BME280_humidity;BME280_pressure;Samples;Min_cycle;Max_cycle;Signal;HPM_P1;HPM_P2
2021/12/18 00:02:01;;;;;;;10.75;7.00;;;;;;;1.36;78.18;99321.34;4772766;29;20099;-67
2021/12/18 00:04:26;;;;;;;8.95;5.55;;;;;;;1.33;77.93;99334.59;4789295;29;20046;-70
2021/12/18 00:06:50;;;;;;;10.43;5.95;;;;;;;1.29;78.10;99325.13;4772867;29;20038;-69
2021/12/18 00:09:15;;;;;;;10.93;6.32;;;;;;;1.28;78.17;99335.69;4789251;29;20058;-68
2021/12/18 00:11:40;;;;;;;11.82;6.53;;;;;;;1.27;78.12;99331.34;4773135;29;20062;-67
2021/12/18 00:14:05;;;;;;;9.57;6.35;;;;;;;1.27;78.41;99331.34;4773027;29;20095;-68
2021/12/18 00:16:30;;;;;;;7.97;5.43;;;;;;;1.29;78.54;99329.53;4788803;29;20111;-70
2021/12/18 00:18:57;;;;;;;9.98;5.75;;;;;;;1.29;78.34;99319.88;4788582;29;20050;-71
2021/12/18 00:21:22;;;;;;;10.02;6.05;;;;;;;1.30;79.01;99318.09;4789079;29;20046;-70
2021/12/18 00:23:47;;;;;;;9.35;6.07;;;;;;;1.31;78.60;99319.81;4757664;29;20054;-69
2021/12/18 00:26:11;;;;;;;9.55;5.80;;;;;;;1.30;78.59;99313.72;4757937;29;20042;-68
2021/12/18 00:28:36;;;;;;;7.70;5.20;;;;;;;1.31;78.83;99314.56;4788848;29;20054;-68
2021/12/18 00:31:01;;;;;;;9.13;5.30;;;;;;;1.33;78.82;99318.84;4788491;29;20050;-69
2021/12/18 00:33:26;;;;;;;7.13;5.22;;;;;;;1.35;79.02;99321.44;4798782;29;20061;-68
2021/12/18 00:35:51;;;;;;;9.07;5.60;;;;;;;1.36;78.60;99320.47;4782493;29;20057;-68
2021/12/18 00:38:16;;;;;;;11.95;6.28;;;;;;;1.38;78.70;99326.53;4779983;29;20106;-67
2021/12/18 00:40:46;;;;;;;11.13;5.18;;;;;;;1.35;78.18;99322.28;4790098;29;20050;-73
2021/12/18 00:43:30;;;;;;;9.48;5.60;;;;;;;1.38;78.47;99327.38;4788699;29;20065;-66
2021/12/18 00:45:55;;;;;;;11.15;5.65;;;;;;;1.37;78.51;99319.56;4770875;29;20062;-65
2021/12/18 00:48:20;;;;;;;10.52;5.57;;;;;;;1.36;78.70;99321.34;4788651;29;20082;-66
2021/12/18 00:50:47;;;;;;;10.90;5.18;;;;;;;1.38;78.51;99322.13;4788530;29;20141;-65
2021/12/18 00:53:12;;;;;;;9.65;6.20;;;;;;;1.41;78.54;99321.16;4788498;29;20054;-67
2021/12/18 00:55:38;;;;;;;8.20;4.72;;;;;;;1.43;78.52;99324.59;4788770;29;20098;-67
2021/12/18 00:58:03;;;;;;;12.52;5.57;;;;;;;1.44;78.33;99321.06;4772493;29;20046;-66
2021/12/18 01:00:31;;;;;;;12.57;6.00;;;;;;;1.44;78.60;99323.69;4772285;29;20078;-69
2021/12/18 01:03:00;;;;;;;11.77;5.80;;;;;;;1.44;78.74;99326.31;4788633;29;20102;-68
2021/12/18 01:05:26;;;;;;;7.63;4.70;;;;;;;1.45;78.44;99330.66;4757479;29;20887;-69
2021/12/18 01:07:51;;;;;;;9.05;4.80;;;;;;;1.43;78.47;99332.47;4757582;29;20077;-71
2021/12/18 01:10:47;;;;;;;7.43;4.55;;;;;;;1.40;78.47;99337.84;4788518;29;20049;-71
2021/12/18 01:13:15;;;;;;;7.50;5.18;;;;;;;1.38;77.95;99345.78;4772147;29;20070;-71
2021/12/18 01:15:46;;;;;;;11.27;5.05;;;;;;;1.38;78.08;99344.91;4772435;29;20475;-68
2021/12/18 01:23:38;;;;;;;6.80;4.45;;;;;;;1.38;78.64;99327.38;4772056;29;20137;-70
2021/12/18 01:26:04;;;;;;;12.93;5.30;;;;;;;1.36;78.81;99339.72;4788495;29;20184;-72
2021/12/18 01:28:31;;;;;;;7.07;4.60;;;;;;;1.38;78.96;99329.16;4788459;29;20099;-69
2021/12/18 01:30:55;;;;;;;8.65;4.72;;;;;;;1.34;78.60;99324.97;4788408;29;20050;-70
2021/12/18 01:33:20;;;;;;;6.00;3.75;;;;;;;1.37;78.91;99324.81;4788287;29;20060;-66
2021/12/18 01:35:45;;;;;;;10.45;4.65;;;;;;;1.35;78.82;99321.44;4771575;29;20050;-68
2021/12/18 01:38:11;;;;;;;6.07;3.95;;;;;;;1.34;78.26;99330.22;4771419;29;20050;-71
2021/12/18 01:40:36;;;;;;;6.60;3.40;;;;;;;1.35;78.64;99329.31;4788369;29;20058;-68
2021/12/18 01:53:39;;;;;;;3.55;2.70;;;;;;;1.34;78.07;99325.81;4788690;29;20050;-69
2021/12/18 01:56:05;;;;;;;3.50;2.75;;;;;;;1.32;77.63;99337.28;4788719;29;20119;-69
2021/12/18 01:58:30;;;;;;;4.45;3.40;;;;;;;1.30;77.63;99339.97;4788554;29;20061;-68
2021/12/18 02:00:57;;;;;;;5.53;3.85;;;;;;;1.29;77.91;99335.63;4787780;29;20436;-70
2021/12/18 02:03:24;;;;;;;3.72;2.97;;;;;;;1.28;77.67;99347.03;4771683;29;20046;-70
2021/12/18 02:05:53;;;;;;;5.38;3.60;;;;;;;1.30;77.95;99342.59;4788410;29;20042;-70
2021/12/18 02:08:27;;;;;;;5.05;3.33;;;;;;;1.29;77.30;99348.75;4789828;29;20046;-69
2021/12/18 02:11:02;;;;;;;3.78;3.30;;;;;;;1.29;77.69;99351.38;4795912;29;20042;-67
2021/12/18 02:21:26;;;;;;;5.97;3.80;;;;;;;1.26;77.43;99342.75;4776822;29;20040;-67
2021/12/18 02:23:53;;;;;;;5.97;3.10;;;;;;;1.20;77.48;99348.25;4789058;29;20049;-67
2021/12/18 02:26:20;;;;;;;4.47;2.97;;;;;;;1.16;77.48;99347.50;4768354;29;20046;-69
2021/12/18 02:28:48;;;;;;;4.20;2.70;;;;;;;1.06;77.66;99341.75;4789699;29;20074;-69
2021/12/18 02:31:13;;;;;;;3.78;2.47;;;;;;;1.02;77.97;99355.91;4787704;29;20134;-70
2021/12/18 02:33:39;;;;;;;2.63;2.35;;;;;;;1.01;77.71;99353.38;4775653;29;20385;-71
2021/12/18 02:36:07;;;;;;;4.78;2.03;;;;;;;1.03;77.17;99346.25;4795013;29;20789;-67
2021/12/18 02:41:21;;;;;;;3.00;2.03;;;;;;;0.88;77.39;99362.59;4789295;29;20517;-68
2021/12/18 02:43:46;;;;;;;3.90;1.88;;;;;;;0.82;76.87;99363.66;4789473;29;20513;-66
2021/12/18 02:46:17;;;;;;;2.00;1.70;;;;;;;0.82;77.18;99362.81;4788946;29;20479;-68
2021/12/18 02:48:41;;;;;;;2.03;1.75;;;;;;;0.81;77.30;99369.81;4805233;29;20046;-65
2021/12/18 02:51:10;;;;;;;2.67;1.70;;;;;;;0.79;76.98;99374.25;4788933;29;20106;-67
2021/12/18 02:53:37;;;;;;;2.17;1.20;;;;;;;0.75;76.56;99377.94;4792834;29;20042;-68
2021/12/18 02:56:06;;;;;;;1.90;1.15;;;;;;;0.79;76.85;99382.13;4770977;29;20498;-65
2021/12/18 02:58:35;;;;;;;1.58;1.33;;;;;;;0.78;76.30;99382.22;4787040;29;20043;-72
2021/12/18 03:01:00;;;;;;;3.67;1.98;;;;;;;0.72;76.32;99371.03;4761483;29;20046;-69
2021/12/18 03:03:29;;;;;;;2.30;1.48;;;;;;;0.75;76.89;99377.06;4779286;29;20128;-68
2021/12/18 03:06:21;;;;;;;2.08;1.52;;;;;;;0.75;76.67;99375.31;4797114;29;20544;-68
2021/12/18 03:24:54;;;;;;;2.05;1.38;;;;;;;0.61;75.89;99373.16;4809395;29;20391;-70
2021/12/18 03:27:20;;;;;;;2.22;1.35;;;;;;;0.61;76.16;99370.53;4794036;29;20421;-71
2021/12/18 03:29:44;;;;;;;2.05;1.25;;;;;;;0.57;75.73;99373.31;4793183;29;20046;-71
2021/12/18 03:32:09;;;;;;;2.35;1.30;;;;;;;0.54;75.92;99378.69;4778655;29;20501;-70
2021/12/18 03:34:34;;;;;;;1.33;1.15;;;;;;;0.50;75.25;99377.06;4792531;29;20516;-70
2021/12/18 03:37:00;;;;;;;1.77;1.17;;;;;;;0.50;75.32;99387.56;4791922;29;20041;-70
2021/12/18 03:39:24;;;;;;;1.50;1.10;;;;;;;0.48;75.20;99385.00;4792349;29;20753;-70
2021/12/18 03:41:49;;;;;;;1.98;1.55;;;;;;;0.49;75.32;99391.09;4808502;29;20386;-70
2021/12/18 03:44:17;;;;;;;1.75;1.40;;;;;;;0.49;75.06;99385.84;4809326;29;20413;-71
2021/12/18 03:46:41;;;;;;;1.92;1.38;;;;;;;0.48;75.06;99387.63;4793457;29;20038;-72
2021/12/18 03:49:06;;;;;;;2.60;1.58;;;;;;;0.48;74.94;99392.00;4793509;29;20042;-72
2021/12/18 03:51:31;;;;;;;3.17;1.38;;;;;;;0.49;74.86;99386.72;4778094;29;20053;-70
2021/12/18 03:53:56;;;;;;;1.30;1.13;;;;;;;0.47;74.40;99383.28;4792655;29;20045;-71
2021/12/18 03:56:20;;;;;;;1.20;1.10;;;;;;;0.50;74.37;99391.03;4792449;29;20065;-70
2021/12/18 03:58:45;;;;;;;2.72;1.08;;;;;;;0.49;73.97;99401.59;4808560;29;20037;-69
2021/12/18 04:01:10;;;;;;;0.50;0.50;;;;;;;0.53;74.36;99398.81;4808262;29;20050;-69
2021/12/18 04:03:35;;;;;;;1.13;0.73;;;;;;;0.52;73.75;99391.84;4808534;29;20098;-69
2021/12/18 04:06:00;;;;;;;1.75;1.23;;;;;;;0.52;73.31;99398.88;4777138;29;20048;-69
2021/12/18 04:08:24;;;;;;;0.93;0.73;;;;;;;0.52;73.34;99404.97;4791617;29;20038;-68
2021/12/18 04:10:49;;;;;;;1.38;0.88;;;;;;;0.49;72.88;99401.59;4791531;29;20454;-68
2021/12/18 04:13:16;;;;;;;2.88;1.13;;;;;;;0.52;73.31;99397.09;4806583;29;20103;-75
2021/12/18 11:26:13;;;;;;;1.60;0.88;;;;;;;-0.15;62.27;99228.22;5654434;24;20264;-72
2021/12/18 11:28:44;;;;;;;1.95;1.05;;;;;;;-0.16;62.29;99231.75;4860674;29;20054;-75
2021/12/18 11:31:11;;;;;;;1.50;1.17;;;;;;;-0.25;61.87;99225.06;4846830;29;20059;-73
2021/12/18 11:33:36;;;;;;;2.55;1.83;;;;;;;-0.27;62.43;99212.91;4831836;29;20048;-73
2021/12/18 11:36:04;;;;;;;2.70;1.85;;;;;;;-0.27;62.58;99218.16;4863927;29;20155;-72
2021/12/18 11:38:30;;;;;;;4.55;2.83;;;;;;;-0.28;62.38;99219.91;4847449;29;20080;-73
2021/12/18 11:40:55;;;;;;;2.28;2.00;;;;;;;-0.26;63.20;99219.88;4864138;29;20044;-76
2021/12/18 11:43:33;;;;;;;3.15;1.98;;;;;;;-0.40;61.36;99217.72;4847666;29;20076;-74
2021/12/18 11:45:58;;;;;;;1.88;1.55;;;;;;;-0.47;62.67;99214.47;4864637;29;20131;-70
2021/12/18 11:48:23;;;;;;;1.88;1.30;;;;;;;-0.54;62.71;99210.31;4847810;29;20139;-76
2021/12/18 11:50:50;;;;;;;1.33;1.20;;;;;;;-0.52;62.73;99210.28;4862931;29;20053;-78
2021/12/18 11:53:18;;;;;;;1.90;1.60;;;;;;;-0.51;62.88;99214.59;4863221;29;20111;-75
2021/12/18 11:55:48;;;;;;;2.42;1.88;;;;;;;-0.60;63.25;99213.16;4847639;29;20136;-73
2021/12/18 11:58:21;;;;;;;3.85;2.13;;;;;;;-0.72;63.68;99216.19;4863237;29;20127;-77
2021/12/18 12:00:50;;;;;;;3.83;2.08;;;;;;;-0.75;64.08;99213.66;4864596;29;20056;-73
2021/12/18 12:03:40;;;;;;;4.97;2.47;;;;;;;-0.72;64.47;99208.31;4846970;29;20040;-72
2021/12/18 12:06:30;;;;;;;6.32;2.80;;;;;;;-0.75;65.03;99198.81;4862743;29;20080;-72
2021/12/18 12:09:14;;;;;;;5.85;3.55;;;;;;;-0.78;65.23;99198.03;4846679;29;20045;-73
2021/12/18 12:11:57;;;;;;;5.53;2.72;;;;;;;-0.70;65.71;99190.81;4865650;29;20041;-75
2021/12/18 12:14:25;;;;;;;4.97;2.53;;;;;;;-0.76;65.85;99188.38;4831207;29;20094;-73
2021/12/18 12:16:50;;;;;;;8.20;3.20;;;;;;;-0.83;66.32;99177.28;4847914;29;20419;-76
2021/12/18 12:19:21;;;;;;;11.38;4.10;;;;;;;-0.91;67.11;99171.44;4865129;29;20411;-70
2021/12/18 12:21:50;;;;;;;2.53;2.10;;;;;;;-0.80;66.90;99163.25;4848022;29;20415;-72
2021/12/18 12:24:21;;;;;;;4.07;2.60;;;;;;;-0.84;67.33;99177.31;4864647;29;20048;-75
2021/12/18 12:26:47;;;;;;;3.03;2.03;;;;;;;-0.94;68.03;99166.31;4847133;29;20059;-72
2021/12/18 12:29:14;;;;;;;2.20;1.65;;;;;;;-0.94;68.05;99165.44;4847721;29;20135;-74
2021/12/18 12:31:54;;;;;;;3.50;2.17;;;;;;;-0.89;68.21;99158.28;4862338;29;20193;-74
2021/12/18 12:34:20;;;;;;;3.65;2.65;;;;;;;-0.98;68.29;99153.38;4863530;29;20048;-71
2021/12/18 12:36:45;;;;;;;3.75;2.47;;;;;;;-1.01;68.30;99162.16;4846541;29;20048;-72
2021/12/18 12:39:12;;;;;;;2.40;2.20;;;;;;;-0.94;68.82;99163.69;4864190;29;20087;-71
2021/12/18 12:41:41;;;;;;;4.75;2.67;;;;;;;-0.99;68.30;99147.28;4827079;29;20049;-72
2021/12/18 12:44:37;;;;;;;5.43;3.45;;;;;;;-0.96;68.51;99151.56;4844411;29;20113;-74
2021/12/18 12:47:19;;;;;;;4.13;2.17;;;;;;;-0.90;68.47;99151.34;4844929;29;20795;-79
2021/12/18 12:49:50;;;;;;;3.30;2.30;;;;;;;-0.93;68.56;99144.47;4843301;29;20045;-70
2021/12/18 12:52:19;;;;;;;6.13;2.22;;;;;;;-0.94;68.90;99141.91;4844250;29;20041;-70
2021/12/18 12:54:59;;;;;;;2.53;2.28;;;;;;;-1.00;69.26;99137.72;4827508;29;20134;-70
2021/12/18 12:57:24;;;;;;;2.45;1.70;;;;;;;-1.03;69.54;99121.28;4827113;29;20515;-70
2021/12/18 13:00:11;;;;;;;1.92;1.52;;;;;;;-0.94;69.57;99119.22;4842853;29;20508;-70
2021/12/18 13:02:48;;;;;;;3.50;2.05;;;;;;;-0.99;69.55;99115.03;4834682;29;20049;-71
2021/12/18 13:05:15;;;;;;;7.28;2.65;;;;;;;-1.02;69.92;99113.38;4849759;29;20056;-68
2021/12/18 13:07:58;;;;;;;7.57;2.67;;;;;;;-1.04;69.81;99112.56;4844417;29;20096;-73
2021/12/18 13:10:27;;;;;;;3.78;2.72;;;;;;;-1.20;69.74;99117.44;4826993;29;20049;-71
2021/12/18 13:12:53;;;;;;;4.65;3.08;;;;;;;-1.13;69.38;99108.47;4827177;29;20041;-69
2021/12/18 13:15:18;;;;;;;2.45;1.73;;;;;;;-1.07;69.90;99109.19;4827324;29;20420;-70
2021/12/18 13:17:43;;;;;;;5.55;1.95;;;;;;;-1.02;69.89;99107.31;4839791;29;20076;-71
2021/12/18 13:20:08;;;;;;;3.88;2.60;;;;;;;-0.99;69.66;99107.16;4811637;29;20086;-69
2021/12/18 13:22:34;;;;;;;4.45;2.63;;;;;;;-0.95;69.27;99117.50;4831512;29;20500;-70
2021/12/18 13:25:05;;;;;;;3.65;2.33;;;;;;;-0.94;69.35;99098.28;4852553;29;20464;-70
2021/12/18 13:27:30;;;;;;;6.90;3.30;;;;;;;-0.99;69.34;99109.78;4862209;29;20135;-70
2021/12/18 13:30:21;;;;;;;4.05;2.80;;;;;;;-0.92;69.69;99100.84;4862054;29;20048;-71
2021/12/18 13:32:57;;;;;;;4.13;2.85;;;;;;;-0.90;69.53;99101.63;4845378;29;20143;-69
2021/12/18 13:35:25;;;;;;;5.32;2.97;;;;;;;-0.89;69.62;99103.34;4845075;29;20036;-70
2021/12/18 13:38:07;;;;;;;4.97;2.63;;;;;;;-0.88;69.83;99092.81;4844993;29;20060;-70
2021/12/18 13:40:37;;;;;;;4.07;2.95;;;;;;;-0.84;69.44;99093.59;4860804;29;20104;-71
2021/12/18 13:43:14;;;;;;;3.15;2.45;;;;;;;-0.78;69.21;99085.50;4860895;29;20049;-69
2021/12/18 13:45:58;;;;;;;4.75;3.05;;;;;;;-0.80;69.14;99080.34;4860537;29;20071;-70
2021/12/18 13:48:37;;;;;;;8.40;3.25;;;;;;;-0.83;69.23;99076.97;4861922;29;20051;-69
2021/12/18 13:51:04;;;;;;;3.03;2.35;;;;;;;-0.84;69.53;99073.50;4844917;29;20049;-70
2021/12/18 13:53:31;;;;;;;7.00;3.70;;;;;;;-0.83;69.28;99069.97;4844496;29;20044;-70
2021/12/18 13:55:58;;;;;;;4.63;3.03;;;;;;;-0.79;69.56;99057.66;4861569;29;20057;-70
2021/12/18 13:58:40;;;;;;;5.18;2.50;;;;;;;-0.77;69.76;99048.81;4843312;29;20140;-70
2021/12/18 14:01:09;;;;;;;5.60;3.08;;;;;;;-0.79;69.84;99049.81;4851506;29;20072;-69
2021/12/18 14:03:58;;;;;;;12.38;3.42;;;;;;;-0.75;69.68;99035.69;4849949;29;20036;-73
2021/12/18 14:06:26;;;;;;;6.82;3.72;;;;;;;-0.86;69.52;99041.31;4825900;29;20044;-74
2021/12/18 14:08:58;;;;;;;4.93;3.00;;;;;;;-0.78;69.86;99027.94;4852165;29;20077;-74
2021/12/18 14:11:29;;;;;;;4.82;2.65;;;;;;;-0.78;69.75;99034.03;4813541;29;20100;-72
2021/12/18 14:14:13;;;;;;;3.42;1.98;;;;;;;-0.76;69.46;99033.97;4844176;29;20500;-75
2021/12/18 14:16:50;;;;;;;3.55;2.42;;;;;;;-0.77;69.71;99027.03;4820923;29;20037;-73
2021/12/18 14:19:25;;;;;;;3.05;2.00;;;;;;;-0.81;69.28;99015.84;4843222;29;20139;-72
2021/12/18 14:21:50;;;;;;;8.73;2.58;;;;;;;-0.84;69.01;99010.72;4841686;29;20100;-74
2021/12/18 14:24:17;;;;;;;0.85;0.82;;;;;;;-0.87;68.64;99002.97;4858868;29;20048;-74
2021/12/18 14:27:06;;;;;;;4.75;2.40;;;;;;;-0.95;68.60;99002.38;4848630;29;20057;-74
2021/12/18 14:29:36;;;;;;;4.55;2.72;;;;;;;-0.99;69.05;98990.31;4839196;29;20483;-73
2021/12/18 14:32:05;;;;;;;4.15;2.30;;;;;;;-0.96;69.29;98984.13;4846672;29;20083;-74
2021/12/18 14:34:35;;;;;;;3.45;2.42;;;;;;;-1.00;68.93;98979.91;4843138;29;20494;-73
2021/12/18 14:37:07;;;;;;;3.33;2.30;;;;;;;-0.93;69.18;98978.78;4842920;29;20037;-72
2021/12/18 14:39:48;;;;;;;3.00;2.20;;;;;;;-1.04;68.99;98980.94;4826178;29;20080;-72
2021/12/18 14:42:16;;;;;;;6.68;2.83;;;;;;;-1.08;69.57;98966.25;4826439;29;20053;-74
2021/12/18 14:44:46;;;;;;;2.28;1.83;;;;;;;-1.03;69.55;98969.56;4826234;29;20513;-75
2021/12/18 14:47:17;;;;;;;3.67;2.28;;;;;;;-1.11;69.70;98957.59;4841909;29;20041;-73
2021/12/18 14:50:06;;;;;;;4.72;2.78;;;;;;;-1.06;69.86;98952.22;4826212;29;20101;-75
2021/12/18 14:52:47;;;;;;;6.47;3.00;;;;;;;-1.04;69.95;98941.69;4810504;29;20052;-74
2021/12/18 14:55:12;;;;;;;4.20;2.85;;;;;;;-1.01;69.86;98945.03;4843806;29;20056;-73
2021/12/18 14:57:37;;;;;;;3.60;2.45;;;;;;;-1.11;69.85;98944.50;4842317;29;20048;-74
2021/12/18 15:00:19;;;;;;;2.60;2.00;;;;;;;-0.96;69.89;98948.34;4842969;29;20049;-75
2021/12/18 15:03:03;;;;;;;1.98;1.75;;;;;;;-1.18;68.87;98940.41;4825880;29;20045;-74
2021/12/18 15:05:49;;;;;;;3.90;2.33;;;;;;;-1.20;68.51;98938.75;4844343;29;20049;-73
2021/12/18 15:08:20;;;;;;;4.75;1.80;;;;;;;-1.19;68.83;98945.69;4829253;29;20049;-74
2021/12/18 15:10:54;;;;;;;1.80;1.40;;;;;;;-1.21;67.98;98944.91;4844863;29;20055;-75
2021/12/18 15:13:21;;;;;;;2.60;1.60;;;;;;;-1.28;67.91;98935.56;4846294;29;20582;-74
2021/12/18 15:15:46;;;;;;;1.98;1.48;;;;;;;-1.20;68.45;98928.28;4845661;29;20045;-73
2021/12/18 15:18:11;;;;;;;1.85;1.40;;;;;;;-1.37;67.65;98921.06;4834589;29;20044;-73
2021/12/18 15:20:36;;;;;;;2.75;1.63;;;;;;;-1.37;67.31;98928.06;4829540;29;20060;-74
2021/12/18 15:23:01;;;;;;;2.85;1.52;;;;;;;-1.39;67.48;98920.25;4845956;29;20056;-74
2021/12/18 15:25:25;;;;;;;5.18;2.17;;;;;;;-1.37;67.85;98915.84;4829380;29;20056;-74
2021/12/18 15:27:50;;;;;;;1.95;1.38;;;;;;;-1.29;67.73;98912.94;4851697;29;20057;-74
2021/12/18 15:30:15;;;;;;;1.70;1.60;;;;;;;-1.30;67.55;98899.00;4847512;29;20055;-73
2021/12/18 15:32:40;;;;;;;3.70;1.98;;;;;;;-1.34;66.74;98905.25;4864388;29;20059;-74
2021/12/18 15:35:05;;;;;;;2.60;1.95;;;;;;;-1.31;66.82;98909.53;4864404;29;20048;-75
2021/12/18 15:37:30;;;;;;;4.80;1.73;;;;;;;-1.30;67.80;98901.63;4847603;29;20056;-74
2021/12/18 15:39:54;;;;;;;2.63;2.00;;;;;;;-1.31;67.64;98894.69;4847663;29;20139;-73
2021/12/18 15:42:25;;;;;;;2.55;1.85;;;;;;;-1.29;67.68;98892.88;4864428;29;20518;-75
2021/12/18 15:44:50;;;;;;;2.13;1.17;;;;;;;-1.29;67.74;98881.56;4863489;29;20040;-73
2021/12/18 15:47:15;;;;;;;1.90;1.23;;;;;;;-1.33;67.65;98867.75;4847655;29;20044;-73
2021/12/18 15:49:40;;;;;;;1.10;0.93;;;;;;;-1.28;67.66;98865.81;4864168;29;20048;-74
2021/12/18 15:52:05;;;;;;;2.83;1.83;;;;;;;-1.21;67.84;98862.06;4847503;29;20048;-74
2021/12/18 15:54:30;;;;;;;3.88;2.47;;;;;;;-1.22;67.48;98854.28;4847219;29;20051;-73
2021/12/18 15:56:55;;;;;;;3.88;2.20;;;;;;;-1.26;67.65;98850.94;4851982;29;20037;-75
2021/12/18 15:59:20;;;;;;;5.45;2.40;;;;;;;-1.30;67.20;98856.31;4853556;29;20048;-74
2021/12/18 16:01:45;;;;;;;3.78;2.30;;;;;;;-1.44;67.72;98843.75;4837496;29;20045;-73
2021/12/18 16:04:10;;;;;;;3.60;2.08;;;;;;;-1.39;68.03;98854.91;4853037;29;20052;-73
2021/12/18 16:06:37;;;;;;;5.10;2.30;;;;;;;-1.43;68.41;98848.06;4838270;29;20044;-73
2021/12/18 16:09:02;;;;;;;5.57;2.97;;;;;;;-1.50;68.15;98843.97;4850865;29;20045;-73
2021/12/18 16:11:27;;;;;;;5.00;2.63;;;;;;;-1.57;68.33;98835.47;4845489;29;20056;-74
2021/12/18 16:13:52;;;;;;;5.00;3.10;;;;;;;-1.66;68.70;98829.72;4846100;29;20056;-74
2021/12/18 16:16:17;;;;;;;6.43;3.38;;;;;;;-1.70;69.05;98823.78;4828431;29;20105;-72
2021/12/18 16:18:42;;;;;;;4.22;3.03;;;;;;;-1.69;69.55;98825.47;4845853;29;20116;-73
2021/12/18 16:21:08;;;;;;;6.38;3.90;;;;;;;-1.72;69.80;98822.13;4846103;29;20091;-74
2021/12/18 16:23:35;;;;;;;7.78;4.40;;;;;;;-1.69;69.47;98812.41;4845707;29;20068;-73
2021/12/18 16:25:59;;;;;;;8.55;4.30;;;;;;;-1.71;70.32;98816.84;4831978;29;20067;-74
2021/12/18 16:28:24;;;;;;;9.55;5.32;;;;;;;-1.74;70.12;98813.47;4846518;29;20053;-74
2021/12/18 16:30:51;;;;;;;6.53;4.18;;;;;;;-1.69;70.33;98806.34;4844467;29;20051;-75
2021/12/18 16:33:16;;;;;;;8.82;5.05;;;;;;;-1.71;70.67;98800.31;4828790;29;20045;-74
2021/12/18 16:35:41;;;;;;;7.07;3.90;;;;;;;-1.66;70.59;98788.78;4829132;29;20045;-74
2021/12/18 16:38:07;;;;;;;13.95;4.40;;;;;;;-1.66;70.56;98788.78;4813612;29;20090;-75
2021/12/18 16:40:39;;;;;;;4.47;3.08;;;;;;;-1.58;70.63;98786.72;4829229;29;20152;-74
2021/12/18 16:43:05;;;;;;;9.00;3.90;;;;;;;-1.47;70.33;98781.13;4813528;29;20080;-76
2021/12/18 16:45:30;;;;;;;6.75;3.85;;;;;;;-1.58;70.86;98778.06;4828660;29;20512;-74
2021/12/18 16:47:56;;;;;;;9.30;4.18;;;;;;;-1.63;70.98;98775.59;4845408;29;20392;-73
2021/12/18 16:50:22;;;;;;;6.00;3.42;;;;;;;-1.71;71.11;98769.81;4844792;29;20048;-70
2021/12/18 16:52:46;;;;;;;11.30;4.57;;;;;;;-1.69;71.31;98767.97;4844463;29;20525;-70
2021/12/18 16:55:11;;;;;;;5.15;3.42;;;;;;;-1.66;71.53;98761.78;4827616;29;20506;-69
2021/12/18 16:57:36;;;;;;;5.68;3.17;;;;;;;-1.63;71.11;98753.84;4843971;29;20041;-70
2021/12/18 17:00:04;;;;;;;7.13;4.38;;;;;;;-1.68;71.30;98729.63;4843987;29;20188;-70
2021/12/18 17:02:29;;;;;;;6.10;3.25;;;;;;;-1.72;71.72;98728.91;4811949;29;20044;-71
2021/12/18 17:04:56;;;;;;;4.95;3.75;;;;;;;-1.71;71.54;98716.72;4836506;29;20044;-70
2021/12/18 17:07:21;;;;;;;6.63;4.13;;;;;;;-1.67;71.86;98703.44;4852118;29;20037;-70
2021/12/18 17:09:46;;;;;;;5.25;3.53;;;;;;;-1.75;71.67;98702.03;4838066;29;20131;-69
2021/12/18 17:12:11;;;;;;;5.45;3.92;;;;;;;-1.93;72.34;98696.59;4852479;29;20190;-69
2021/12/18 17:14:36;;;;;;;5.47;3.60;;;;;;;-1.90;72.46;98696.47;4852296;29;20048;-72
2021/12/18 17:17:01;;;;;;;7.22;4.00;;;;;;;-1.85;72.75;98698.91;4852713;29;20037;-71
2021/12/18 17:19:26;;;;;;;5.78;3.63;;;;;;;-1.84;72.44;98685.81;4827571;29;20044;-72
2021/12/18 17:21:51;;;;;;;6.82;3.95;;;;;;;-1.99;73.22;98667.22;4844206;29;20416;-76
2021/12/18 17:24:15;;;;;;;8.10;3.83;;;;;;;-2.01;73.68;98663.81;4848851;29;20041;-72
2021/12/18 17:26:40;;;;;;;7.68;3.78;;;;;;;-1.93;73.66;98654.81;4862578;29;20081;-74
2021/12/18 17:29:05;;;;;;;5.40;4.03;;;;;;;-1.94;73.62;98647.88;4819842;29;20052;-72
2021/12/18 17:31:32;;;;;;;6.50;4.47;;;;;;;-1.97;74.09;98632.31;4826608;29;20045;-69
2021/12/18 17:33:58;;;;;;;5.85;3.67;;;;;;;-1.92;73.79;98627.75;4843628;29;20496;-70
2021/12/18 17:36:24;;;;;;;8.00;4.95;;;;;;;-2.10;74.72;98625.84;4826540;29;20048;-70
2021/12/18 17:38:48;;;;;;;6.18;3.80;;;;;;;-2.05;75.10;98629.16;4843255;29;20059;-75
2021/12/18 17:41:13;;;;;;;8.57;4.60;;;;;;;-1.98;74.77;98609.72;4843853;29;20131;-76
2021/12/18 17:43:39;;;;;;;4.50;3.28;;;;;;;-1.97;74.87;98600.97;4814922;29;20499;-72
2021/12/18 17:46:04;;;;;;;7.07;4.25;;;;;;;-1.98;74.63;98601.88;4845048;29;20136;-72
2021/12/18 17:48:29;;;;;;;7.32;4.60;;;;;;;-2.06;74.98;98587.41;4828910;29;20041;-72
2021/12/18 17:50:55;;;;;;;7.68;3.92;;;;;;;-1.92;74.72;98582.53;4843288;29;20072;-71
2021/12/18 17:53:20;;;;;;;7.38;4.32;;;;;;;-1.96;74.58;98570.50;4843219;29;20044;-72
2021/12/18 17:55:45;;;;;;;6.18;3.58;;;;;;;-1.98;74.65;98561.84;4844443;29;20044;-79
2021/12/18 17:58:10;;;;;;;6.18;3.95;;;;;;;-2.05;75.35;98569.09;4828226;29;20838;-74
2021/12/18 18:00:35;;;;;;;6.10;4.13;;;;;;;-2.14;75.72;98555.53;4827128;29;20660;-74
2021/12/18 18:03:01;;;;;;;6.00;3.50;;;;;;;-2.12;75.35;98541.47;4843782;29;20045;-73
2021/12/18 18:05:28;;;;;;;7.70;4.63;;;;;;;-2.14;75.66;98537.25;4843556;29;20048;-78
2021/12/18 18:07:53;;;;;;;6.30;3.95;;;;;;;-2.18;75.33;98533.91;4827443;29;20131;-72
2021/12/18 18:10:42;;;;;;;6.47;4.13;;;;;;;-2.18;76.18;98526.06;4844375;29;20207;-73
2021/12/18 18:13:07;;;;;;;5.95;3.72;;;;;;;-2.03;75.25;98522.03;4812638;29;20053;-73
2021/12/18 18:15:32;;;;;;;4.85;3.25;;;;;;;-2.01;75.40;98525.41;4827829;29;20051;-71
2021/12/18 18:17:57;;;;;;;7.75;4.38;;;;;;;-1.90;74.66;98510.16;4827644;29;20047;-71
2021/12/18 18:20:22;;;;;;;7.28;4.28;;;;;;;-1.93;74.73;98494.63;4828616;29;20606;-71
2021/12/18 18:22:47;;;;;;;5.38;3.50;;;;;;;-2.05;74.88;98498.56;4844569;29;20052;-71
2021/12/18 18:25:12;;;;;;;6.00;3.70;;;;;;;-2.03;75.13;98491.50;4812497;29;20052;-73
2021/12/18 18:27:40;;;;;;;7.75;3.67;;;;;;;-2.05;74.76;98479.44;4827120;29;20052;-73
2021/12/18 18:30:06;;;;;;;6.18;3.92;;;;;;;-1.94;75.36;98464.22;4827199;29;20056;-71
2021/12/18 18:32:32;;;;;;;5.18;3.15;;;;;;;-1.95;75.16;98468.56;4843648;29;20491;-72
2021/12/18 18:34:56;;;;;;;6.63;3.67;;;;;;;-2.00;75.20;98464.44;4826591;29;20041;-71
2021/12/18 18:37:22;;;;;;;7.30;3.67;;;;;;;-1.95;75.04;98467.72;4841714;29;20064;-73
2021/12/18 18:39:47;;;;;;;6.35;3.65;;;;;;;-1.91;74.93;98464.91;4815013;29;20083;-72
2021/12/18 18:42:14;;;;;;;5.57;3.90;;;;;;;-1.90;75.17;98455.31;4849521;29;20055;-74
2021/12/18 18:44:41;;;;;;;4.63;3.25;;;;;;;-1.94;74.48;98446.78;4848502;29;20053;-69
2021/12/18 18:47:14;;;;;;;5.03;3.35;;;;;;;-1.96;74.88;98440.75;4848889;29;20037;-72
2021/12/18 18:49:40;;;;;;;5.28;2.85;;;;;;;-1.87;75.07;98450.81;4849276;29;20073;-71
2021/12/18 18:52:07;;;;;;;4.20;3.15;;;;;;;-1.85;74.93;98441.16;4851883;29;20067;-72
2021/12/18 18:54:32;;;;;;;6.53;4.28;;;;;;;-1.95;74.94;98433.78;4833697;29;20049;-76
2021/12/18 18:56:58;;;;;;;7.03;3.85;;;;;;;-1.94;75.02;98433.72;4832924;29;20048;-77
2021/12/18 18:59:23;;;;;;;5.95;3.67;;;;;;;-1.81;74.72;98431.47;4834199;29;20167;-76
2021/12/18 19:01:48;;;;;;;6.45;3.45;;;;;;;-1.79;74.63;98426.16;4848173;29;20048;-75
2021/12/18 19:04:13;;;;;;;5.78;3.50;;;;;;;-1.79;74.17;98427.00;4850786;29;20048;-73
2021/12/18 19:06:38;;;;;;;8.10;4.32;;;;;;;-1.81;74.06;98404.47;4849116;29;20045;-79
2021/12/18 19:09:03;;;;;;;4.97;3.55;;;;;;;-1.83;74.41;98401.94;4834068;29;20045;-72
2021/12/18 19:11:28;;;;;;;8.13;4.15;;;;;;;-1.88;74.48;98417.78;4832246;29;20056;-73
2021/12/18 19:13:53;;;;;;;7.30;4.18;;;;;;;-1.81;74.42;98401.88;4832066;29;20060;-75
2021/12/18 19:16:19;;;;;;;5.75;4.00;;;;;;;-1.85;74.63;98396.78;4832114;29;20109;-72
2021/12/18 19:18:53;;;;;;;4.97;3.00;;;;;;;-1.84;74.50;98392.41;4847593;29;20080;-71
2021/12/18 19:21:24;;;;;;;5.75;3.53;;;;;;;-1.85;74.32;98380.25;4833315;29;20106;-71
2021/12/18 19:23:55;;;;;;;6.35;4.10;;;;;;;-1.84;74.60;98374.97;4851141;29;20041;-66
2021/12/18 19:26:23;;;;;;;4.72;3.08;;;;;;;-1.78;74.54;98354.69;4848130;29;20583;-66
2021/12/18 19:28:49;;;;;;;6.05;4.32;;;;;;;-1.76;74.61;98348.50;4848715;29;20136;-68
2021/12/18 19:31:16;;;;;;;3.67;2.60;;;;;;;-1.64;74.04;98342.75;4832036;29;20059;-66
2021/12/18 19:33:42;;;;;;;6.53;3.60;;;;;;;-1.79;74.13;98321.66;4851315;29;20053;-66
2021/12/18 19:36:11;;;;;;;6.93;3.80;;;;;;;-2.01;74.69;98327.78;4851256;29;20052;-68